Time;durP1;ratioP1;P1;durP2;ratioP2;P2;SDS_P1;SDS_P2;PMS_P1;PMS_P2;Temp;Humidity;BMP_temperature;BMP_pressure;BME280_temperature;BME280_humidity;BME280_pressure;Samples;Min_cycle;Max_cycle;Signal;HPM_P1;HPM_P2
2022/08/23 00:00:10;;;;;;;402.60;329.30;;;;;;;22.88;91.16;98930.84;267886;36;5493;-82
2022/08/23 00:00:21;;;;;;;401.38;324.35;;;;;;;22.87;91.17;98928.31;268175;36;894;-82
2022/08/23 00:00:32;;;;;;;404.02;331.25;;;;;;;22.88;90.96;98930.84;268068;36;1440;-82
2022/08/23 00:00:42;;;;;;;407.35;340.90;;;;;;;22.89;90.95;98927.16;266258;36;7337;-82
2022/08/23 00:00:52;;;;;;;408.02;344.67;;;;;;;22.87;91.03;98929.16;263057;37;8301;-82
2022/08/23 00:01:07;;;;;;;407.37;346.60;;;;;;;22.87;91.21;98929.16;259758;38;1227;-82
2022/08/23 00:01:21;;;;;;;407.10;344.17;;;;;;;22.87;91.10;98923.81;261816;37;1322;-81
2022/08/23 00:01:32;;;;;;;405.25;331.17;;;;;;;22.89;90.82;98926.34;260310;37;1477;-82
2022/08/23 00:03:28;;;;;;;388.83;312.09;;;;;;;22.90;90.66;98920.00;2497284;27;20478;-81
2022/08/23 00:03:38;;;;;;;402.20;346.60;;;;;;;22.89;90.47;98932.50;353268;28;1414;-81
2022/08/23 00:03:49;;;;;;;404.00;348.50;;;;;;;22.90;90.82;98922.66;351901;28;1307;-81
2022/08/23 00:04:09;;;;;;;406.67;350.80;;;;;;;22.88;90.89;98919.31;348955;28;1282;-81
2022/08/23 00:04:25;;;;;;;407.73;353.55;;;;;;;22.88;90.76;98925.50;349163;28;896;-81
2022/08/23 00:04:40;;;;;;;408.35;354.25;;;;;;;22.92;90.58;98925.19;348974;28;1290;-81
2022/08/23 00:04:50;;;;;;;405.45;345.65;;;;;;;22.90;90.38;98922.66;348982;28;1413;-81
2022/08/23 00:05:01;;;;;;;401.83;339.23;;;;;;;22.90;90.76;98925.34;350290;28;1333;-81
2022/08/23 00:05:11;;;;;;;399.77;340.40;;;;;;;22.91;90.39;98926.19;350298;28;1250;-81
2022/08/23 00:05:22;;;;;;;401.77;344.10;;;;;;;22.88;90.74;98920.16;348208;28;1364;-81
2022/08/23 00:05:33;;;;;;;403.63;347.98;;;;;;;22.87;90.72;98923.81;348913;28;872;-81
2022/08/23 00:05:43;;;;;;;405.30;347.30;;;;;;;22.91;90.47;98918.16;348976;28;1323;-81
2022/08/23 00:05:53;;;;;;;402.40;341.35;;;;;;;22.89;90.45;98921.84;348964;28;1315;-81
2022/08/23 00:06:04;;;;;;;403.77;340.70;;;;;;;22.86;90.13;98919.47;346271;28;1109;-81
2022/08/23 00:06:14;;;;;;;401.52;340.73;;;;;;;22.91;90.29;98928.84;350379;28;1359;-81
2022/08/23 00:06:26;;;;;;;405.23;343.97;;;;;;;22.91;90.19;98923.50;353791;28;868;-81
2022/08/23 00:06:37;;;;;;;406.52;344.10;;;;;;;22.89;90.27;98926.34;347598;28;1467;-81
2022/08/23 00:06:48;;;;;;;408.35;344.42;;;;;;;22.87;90.37;98921.16;346572;28;1118;-81
2022/08/23 00:06:58;;;;;;;406.90;346.35;;;;;;;22.91;90.39;98920.84;348153;28;1318;-81
2022/08/23 00:07:10;;;;;;;407.70;344.10;;;;;;;22.92;90.30;98925.19;345657;28;1205;-81
2022/08/23 00:07:21;;;;;;;409.52;345.77;;;;;;;22.87;90.23;98918.47;345336;28;1510;-81
2022/08/23 00:07:32;;;;;;;405.08;342.90;;;;;;;22.91;90.53;98928.84;348834;28;1402;-81
2022/08/23 00:07:42;;;;;;;402.65;347.30;;;;;;;22.88;90.32;98920.16;348953;28;1124;-81
2022/08/23 00:07:53;;;;;;;402.50;345.67;;;;;;;22.88;90.46;98922.81;348937;28;1058;-81
2022/08/23 00:08:04;;;;;;;404.52;348.10;;;;;;;22.91;90.39;98928.84;345868;28;1270;-81
2022/08/23 00:08:14;;;;;;;404.83;347.00;;;;;;;22.86;90.37;98924.81;340878;29;1281;-81
2022/08/23 00:08:25;;;;;;;403.47;346.53;;;;;;;22.88;90.42;98919.31;343314;28;1296;-81
2022/08/23 00:08:36;;;;;;;400.92;344.85;;;;;;;22.88;90.40;98924.66;343617;28;1335;-81
2022/08/23 00:08:47;;;;;;;402.17;342.55;;;;;;;22.83;90.20;98922.47;346179;28;1467;-81
2022/08/23 00:08:58;;;;;;;405.80;340.33;;;;;;;22.87;90.25;98923.81;344973;28;1644;-81
2022/08/23 00:09:08;;;;;;;405.80;337.15;;;;;;;22.85;90.38;98928.47;343385;28;1267;-81
2022/08/23 00:09:20;;;;;;;405.70;338.00;;;;;;;22.85;90.37;98924.97;341737;28;1325;-81
2022/08/23 00:09:30;;;;;;;405.80;339.88;;;;;;;22.83;90.43;98919.78;340358;29;1075;-82
2022/08/23 00:09:41;;;;;;;405.95;342.73;;;;;;;22.86;90.43;98924.81;337011;29;1293;-82
2022/08/23 00:09:51;;;;;;;402.87;341.17;;;;;;;22.82;90.19;98920.78;340108;29;1185;-82
2022/08/23 00:10:03;;;;;;;403.37;343.07;;;;;;;22.85;90.40;98925.81;338108;29;1302;-82
2022/08/23 00:10:15;;;;;;;403.38;343.73;;;;;;;22.86;90.35;98927.47;338261;29;1408;-82
2022/08/23 00:10:25;;;;;;;403.85;343.73;;;;;;;22.85;90.57;98922.31;341882;28;1443;-82
2022/08/23 00:10:35;;;;;;;405.93;346.43;;;;;;;22.86;90.40;98919.47;342234;28;1252;-82
2022/08/23 00:10:46;;;;;;;407.13;345.65;;;;;;;22.87;90.21;98922.97;339612;29;1218;-82
2022/08/23 00:10:57;;;;;;;410.17;346.77;;;;;;;22.86;90.31;98927.47;336996;29;1063;-82
2022/08/23 00:11:23;;;;;;;409.63;349.17;;;;;;;22.84;90.34;98924.13;339724;29;1312;-82
2022/08/23 00:11:40;;;;;;;402.70;349.70;;;;;;;22.85;90.28;98922.31;335900;29;1423;-82
2022/08/23 00:11:52;;;;;;;405.45;348.02;;;;;;;22.85;90.61;98923.13;339003;28;1466;-83
2022/08/23 00:12:11;;;;;;;406.05;347.45;;;;;;;22.86;90.53;98931.97;339448;28;1689;-83
2022/08/23 00:12:22;;;;;;;402.48;346.70;;;;;;;22.86;90.31;98927.47;343471;28;1359;-83
2022/08/23 00:12:32;;;;;;;402.53;347.43;;;;;;;22.86;90.88;98926.66;337995;29;1379;-82
2022/08/23 00:12:43;;;;;;;401.20;346.23;;;;;;;22.85;90.17;98928.47;335835;29;1255;-82
2022/08/23 00:12:54;;;;;;;400.38;343.52;;;;;;;22.84;90.20;98929.47;337835;29;1279;-82
2022/08/23 00:13:04;;;;;;;403.03;349.03;;;;;;;22.87;90.34;98933.66;338119;29;1210;-82
2022/08/23 00:13:15;;;;;;;404.77;352.95;;;;;;;22.84;90.09;98925.97;337012;29;1236;-82
2022/08/23 00:13:26;;;;;;;409.15;353.50;;;;;;;22.85;90.42;98923.13;334639;29;1459;-82
2022/08/23 00:13:36;;;;;;;410.20;353.43;;;;;;;22.85;90.36;98931.16;335774;29;1568;-82
2022/08/23 00:13:47;;;;;;;411.05;349.38;;;;;;;22.87;90.33;98929.16;336734;29;1839;-82
2022/08/23 00:13:59;;;;;;;408.63;348.53;;;;;;;22.89;89.81;98927.16;335806;29;1290;-82
2022/08/23 00:14:14;;;;;;;404.73;345.67;;;;;;;22.86;90.41;98926.66;335300;29;2068;-82
2022/08/23 00:14:27;;;;;;;402.45;346.80;;;;;;;22.85;90.14;98931.16;333193;29;2280;-82
2022/08/23 00:14:40;;;;;;;403.88;346.45;;;;;;;22.86;90.07;98927.47;331617;29;1769;-82
2022/08/23 00:14:52;;;;;;;405.75;347.92;;;;;;;22.88;90.02;98930.00;328362;30;1308;-82
2022/08/23 00:15:03;;;;;;;408.50;351.73;;;;;;;22.88;90.19;98925.50;331775;29;1375;-82
2022/08/23 00:15:15;;;;;;;407.63;351.08;;;;;;;22.86;90.57;98924.81;323414;30;1251;-82
2022/08/23 00:15:25;;;;;;;408.52;348.13;;;;;;;22.88;90.10;98930.00;323093;30;1956;-82
2022/08/23 00:15:36;;;;;;;405.77;348.15;;;;;;;22.85;89.95;98925.81;322154;30;1991;-82
2022/08/23 00:15:46;;;;;;;402.87;345.60;;;;;;;22.88;89.79;98922.00;318683;31;1254;-82
2022/08/23 00:15:57;;;;;;;403.50;349.87;;;;;;;22.87;90.13;98928.31;328993;30;2484;-82
2022/08/23 00:16:08;;;;;;;402.70;351.65;;;;;;;22.85;90.18;98931.16;326535;30;2396;-82
2022/08/23 00:16:18;;;;;;;404.98;351.20;;;;;;;22.86;89.93;98931.97;321467;30;2766;-82
2022/08/23 00:16:28;;;;;;;404.93;350.77;;;;;;;22.87;89.84;98929.16;322365;30;1410;-82
2022/08/23 00:16:39;;;;;;;406.57;350.20;;;;;;;22.85;90.06;98925.81;323978;30;2661;-82
2022/08/23 00:16:51;;;;;;;405.08;351.98;;;;;;;22.85;90.06;98932.97;324333;30;1772;-82
2022/08/23 00:17:02;;;;;;;404.42;350.20;;;;;;;22.87;90.13;98931.00;323430;30;1298;-82
2022/08/23 00:17:13;;;;;;;404.58;354.00;;;;;;;22.87;89.91;98933.66;319337;30;1406;-82
2022/08/23 00:17:23;;;;;;;403.38;352.77;;;;;;;22.88;89.99;98932.66;320916;30;1909;-82
2022/08/23 00:17:34;;;;;;;403.27;352.08;;;;;;;22.88;90.21;98933.50;319144;30;2671;-82
2022/08/23 00:17:45;;;;;;;405.03;351.67;;;;;;;22.87;89.80;98929.16;315841;31;790;-82
2022/08/23 00:17:55;;;;;;;405.00;350.35;;;;;;;22.88;90.12;98936.16;317366;31;2842;-82
2022/08/23 00:18:06;;;;;;;404.07;351.40;;;;;;;22.90;90.14;98933.34;312987;31;2993;-82
2022/08/23 00:18:17;;;;;;;403.30;352.23;;;;;;;22.91;89.87;98928.84;309726;31;1265;-82
2022/08/23 00:18:27;;;;;;;403.02;349.80;;;;;;;22.89;89.88;98927.16;310903;31;1434;-82
2022/08/23 00:18:38;;;;;;;400.57;345.87;;;;;;;22.91;89.73;98928.84;309180;31;3468;-82
2022/08/23 00:18:48;;;;;;;398.52;346.25;;;;;;;22.88;90.25;98925.50;308460;31;3186;-82
2022/08/23 00:18:58;;;;;;;399.93;347.60;;;;;;;22.89;90.10;98927.16;308610;32;1215;-82
2022/08/23 00:19:10;;;;;;;399.67;346.67;;;;;;;22.86;90.14;98932.81;308335;32;2461;-82
2022/08/23 00:19:21;;;;;;;399.58;344.25;;;;;;;22.89;90.21;98929.84;307034;31;2939;-82
2022/08/23 00:19:31;;;;;;;396.42;343.17;;;;;;;22.87;89.75;98929.16;305422;32;1287;-82
2022/08/23 00:19:42;;;;;;;398.85;344.33;;;;;;;22.88;90.19;98930.84;303436;32;1220;-82
2022/08/23 00:19:52;;;;;;;401.00;348.90;;;;;;;22.89;90.01;98929.84;304746;32;2976;-82
2022/08/23 00:20:05;;;;;;;402.88;351.63;;;;;;;22.88;89.95;98927.31;302351;32;4203;-82
2022/08/23 00:20:17;;;;;;;402.95;357.17;;;;;;;22.87;90.12;98928.31;299031;33;852;-82
2022/08/23 00:20:27;;;;;;;403.77;357.63;;;;;;;22.88;89.87;98930.84;295592;33;3604;-82
2022/08/23 00:20:37;;;;;;;403.87;351.30;;;;;;;22.87;90.18;98931.81;295895;33;4699;-82
2022/08/23 00:20:48;;;;;;;406.38;352.17;;;;;;;22.88;90.15;98933.50;292373;33;4376;-82
2022/08/23 00:20:58;;;;;;;404.10;346.85;;;;;;;22.88;90.18;98933.50;291231;33;1368;-82
2022/08/23 00:21:11;;;;;;;404.73;351.97;;;;;;;22.87;90.02;98931.81;291461;33;4293;-82
2022/08/23 00:21:22;;;;;;;405.17;355.75;;;;;;;22.89;90.19;98932.50;290464;33;3280;-82
2022/08/23 00:21:34;;;;;;;405.65;355.67;;;;;;;22.88;90.31;98930.84;286843;34;2968;-82
2022/08/23 00:21:45;;;;;;;405.23;354.45;;;;;;;22.87;90.20;98923.81;283787;34;1347;-82
2022/08/23 00:21:55;;;;;;;402.93;355.60;;;;;;;22.91;90.03;98935.03;290408;33;4830;-82
2022/08/23 00:22:06;;;;;;;403.48;357.20;;;;;;;22.89;90.28;98921.84;287043;33;4986;-82
2022/08/23 00:22:16;;;;;;;402.98;355.85;;;;;;;22.89;90.26;98929.84;286406;34;1990;-82
2022/08/23 00:22:27;;;;;;;402.77;354.80;;;;;;;22.92;90.25;98933.19;284827;34;1285;-82
2022/08/23 00:22:38;;;;;;;400.77;350.40;;;;;;;22.91;90.35;98926.19;288242;34;6398;-82
2022/08/23 00:22:49;;;;;;;400.67;347.83;;;;;;;22.90;89.87;98922.66;285628;34;7400;-82
2022/08/23 00:22:59;;;;;;;401.55;348.33;;;;;;;22.91;89.90;98929.69;283945;34;1325;-82
2022/08/23 00:23:10;;;;;;;402.27;353.80;;;;;;;22.92;90.22;98925.19;280135;34;5942;-82
2022/08/23 00:23:20;;;;;;;404.00;355.60;;;;;;;22.91;90.02;98926.19;280832;34;5906;-82
2022/08/23 00:23:30;;;;;;;405.67;354.20;;;;;;;22.93;90.00;98921.53;284592;34;1302;-82
2022/08/23 00:23:41;;;;;;;406.23;356.80;;;;;;;22.93;90.15;98929.53;285125;34;4433;-82
2022/08/23 00:23:51;;;;;;;404.23;354.92;;;;;;;22.89;89.80;98921.84;284666;34;4008;-82
2022/08/23 00:24:03;;;;;;;404.00;353.90;;;;;;;22.91;89.88;98929.69;282054;35;4448;-82
2022/08/23 00:24:14;;;;;;;403.52;349.27;;;;;;;22.89;90.15;98921.84;279261;35;1349;-82
2022/08/23 00:24:24;;;;;;;404.73;352.48;;;;;;;22.91;90.03;98928.84;279704;35;8195;-82
2022/08/23 00:24:35;;;;;;;406.30;355.90;;;;;;;22.92;90.05;98927.84;279830;34;9127;-82
2022/08/23 00:24:45;;;;;;;405.33;351.67;;;;;;;22.91;89.84;98929.69;280161;35;1366;-82
2022/08/23 00:24:56;;;;;;;402.97;352.57;;;;;;;22.91;90.14;98931.50;280278;34;9811;-82
2022/08/23 00:26:58;;;;;;;375.11;291.54;;;;;;;22.89;89.96;98926.34;2504059;27;20701;-81
2022/08/23 00:27:10;;;;;;;388.23;309.50;;;;;;;22.89;90.04;98929.84;351748;28;1077;-81
2022/08/23 00:27:21;;;;;;;391.05;320.35;;;;;;;22.91;90.19;98939.53;348980;28;1290;-81
2022/08/23 00:27:32;;;;;;;397.50;336.43;;;;;;;22.87;90.09;98923.81;347606;28;1259;-81
2022/08/23 00:27:42;;;;;;;400.02;341.67;;;;;;;22.89;90.39;98929.00;347936;28;1437;-81
2022/08/23 00:27:53;;;;;;;403.40;348.63;;;;;;;22.91;90.23;98929.69;346746;28;1412;-81
2022/08/23 00:28:03;;;;;;;403.58;348.05;;;;;;;22.91;90.03;98926.19;347983;28;1385;-81
2022/08/23 00:28:14;;;;;;;407.13;349.93;;;;;;;22.91;90.28;98929.69;346199;28;1183;-81
2022/08/23 00:28:24;;;;;;;403.87;348.77;;;;;;;22.93;90.15;98926.84;348066;28;821;-81
2022/08/23 00:28:35;;;;;;;404.43;349.53;;;;;;;22.92;90.26;98933.19;349351;28;1212;-81
2022/08/23 00:28:46;;;;;;;401.75;345.70;;;;;;;22.91;90.18;98928.84;348908;28;1234;-81
2022/08/23 00:28:57;;;;;;;402.88;343.35;;;;;;;22.88;90.54;98936.16;347823;28;916;-81
2022/08/23 00:29:07;;;;;;;399.20;342.02;;;;;;;22.86;90.41;98930.16;347525;28;1415;-81
2022/08/23 00:29:18;;;;;;;399.93;346.23;;;;;;;22.88;90.43;98930.84;347637;28;1491;-81
2022/08/23 00:29:31;;;;;;;399.77;345.40;;;;;;;22.92;90.38;98931.34;347745;28;1406;-81
2022/08/23 00:29:49;;;;;;;397.15;342.80;;;;;;;22.93;90.65;98929.53;351290;28;1332;-81
2022/08/23 00:29:59;;;;;;;399.08;346.05;;;;;;;22.91;90.78;98934.19;350171;28;1662;-82
2022/08/23 00:30:16;;;;;;;398.80;344.17;;;;;;;22.89;91.13;98929.00;349113;28;1294;-82
2022/08/23 00:30:27;;;;;;;399.38;343.45;;;;;;;22.90;91.13;98930.69;345248;28;1434;-82
2022/08/23 00:30:38;;;;;;;399.23;342.77;;;;;;;22.90;91.05;98930.69;343836;28;1272;-82
2022/08/23 00:30:48;;;;;;;400.08;343.95;;;;;;;22.90;90.71;98933.34;347464;28;1068;-82
2022/08/23 00:30:58;;;;;;;398.20;345.23;;;;;;;22.89;90.88;98931.66;343939;28;1285;-81
2022/08/23 00:31:09;;;;;;;397.92;346.52;;;;;;;22.91;90.44;98926.19;344648;28;1243;-81
2022/08/23 00:31:19;;;;;;;397.63;344.77;;;;;;;22.91;90.35;98923.50;343435;28;1256;-81
2022/08/23 00:31:30;;;;;;;395.05;336.20;;;;;;;22.89;89.98;98932.50;342859;28;1302;-81
2022/08/23 00:31:40;;;;;;;397.03;337.00;;;;;;;22.87;89.99;98929.16;341405;29;875;-81
2022/08/23 00:31:51;;;;;;;401.77;343.30;;;;;;;22.88;90.06;98936.16;342007;29;1221;-81
2022/08/23 00:32:01;;;;;;;405.65;349.35;;;;;;;22.87;90.06;98933.66;343927;28;1201;-81
2022/08/23 00:32:15;;;;;;;409.92;353.17;;;;;;;22.87;90.11;98928.31;344295;28;1260;-81
2022/08/23 00:32:30;;;;;;;406.10;347.02;;;;;;;22.86;90.21;98926.66;342437;28;1333;-81
2022/08/23 00:32:41;;;;;;;401.65;345.77;;;;;;;22.87;89.95;98931.81;345904;28;846;-81
2022/08/23 00:32:52;;;;;;;399.08;344.15;;;;;;;22.86;90.38;98937.31;347578;28;1278;-81
2022/08/23 00:33:02;;;;;;;402.40;346.30;;;;;;;22.85;90.05;98933.81;345527;28;1365;-81
2022/08/23 00:33:13;;;;;;;404.25;346.48;;;;;;;22.84;90.04;98929.47;347863;28;1210;-81
2022/08/23 00:33:24;;;;;;;412.03;353.03;;;;;;;22.84;90.44;98933.97;349269;28;1090;-82
2022/08/23 00:33:34;;;;;;;412.45;349.08;;;;;;;22.80;90.42;98927.28;346447;28;1306;-82
2022/08/23 00:33:44;;;;;;;410.83;348.63;;;;;;;22.81;90.01;98929.78;346734;28;1454;-82
2022/08/23 00:33:55;;;;;;;411.30;348.40;;;;;;;22.83;90.17;98938.47;347392;28;1192;-82
2022/08/23 00:34:05;;;;;;;413.83;352.70;;;;;;;22.82;90.17;98936.78;346585;28;1210;-82
2022/08/23 00:34:16;;;;;;;413.25;353.42;;;;;;;22.80;90.30;98933.44;347779;28;1224;-82
2022/08/23 00:34:27;;;;;;;410.30;351.08;;;;;;;22.81;90.26;98940.47;347955;28;1350;-82
2022/08/23 00:34:37;;;;;;;411.80;355.23;;;;;;;22.81;90.56;98935.13;344959;28;1248;-82
2022/08/23 00:34:48;;;;;;;411.88;354.17;;;;;;;22.80;90.12;98933.44;345009;28;1272;-82
2022/08/23 00:34:59;;;;;;;412.75;356.30;;;;;;;22.81;90.41;98939.63;344614;28;1469;-82
2022/08/23 00:35:10;;;;;;;409.03;351.73;;;;;;;22.81;89.94;98934.28;342333;29;1016;-82
2022/08/23 00:35:20;;;;;;;406.73;351.77;;;;;;;22.80;90.52;98938.78;339501;29;1284;-82
2022/08/23 00:35:31;;;;;;;407.38;352.00;;;;;;;22.79;89.98;98933.59;337406;29;1592;-82
2022/08/23 00:35:41;;;;;;;410.87;357.83;;;;;;;22.80;90.34;98933.44;334602;29;1427;-82
2022/08/23 00:35:52;;;;;;;411.20;359.80;;;;;;;22.80;90.28;98938.78;339563;29;1449;-82
2022/08/23 00:36:02;;;;;;;412.23;361.60;;;;;;;22.81;89.93;98945.78;340168;29;1254;-82
2022/08/23 00:36:13;;;;;;;412.25;355.02;;;;;;;22.81;90.21;98936.94;336868;29;1196;-80
2022/08/23 00:36:23;;;;;;;410.90;349.37;;;;;;;22.80;90.41;98933.44;338544;29;823;-81
2022/08/23 00:36:34;;;;;;;398.30;335.27;;;;;;;22.80;90.03;98940.63;339099;29;1239;-81
2022/08/23 00:36:44;;;;;;;394.37;332.37;;;;;;;22.79;90.61;98931.78;340071;28;1605;-81
2022/08/23 00:36:54;;;;;;;394.10;331.95;;;;;;;22.80;90.28;98941.44;334424;29;942;-81
2022/08/23 00:37:06;;;;;;;398.53;335.37;;;;;;;22.79;90.27;98936.28;328719;29;1738;-81
2022/08/23 00:37:17;;;;;;;397.38;331.17;;;;;;;22.79;90.58;98937.09;330734;29;1812;-81
2022/08/23 00:37:28;;;;;;;396.80;331.15;;;;;;;22.81;90.55;98939.63;334156;29;1534;-81
2022/08/23 00:37:38;;;;;;;396.45;335.63;;;;;;;22.80;90.50;98938.78;329468;30;1239;-81
2022/08/23 00:37:49;;;;;;;397.40;340.07;;;;;;;22.81;90.60;98940.47;326682;30;2416;-81
2022/08/23 00:37:59;;;;;;;396.00;338.38;;;;;;;22.81;90.40;98945.78;325949;30;1556;-81
2022/08/23 00:38:10;;;;;;;396.10;339.80;;;;;;;22.81;90.61;98940.47;326947;30;1284;-81
2022/08/23 00:38:20;;;;;;;395.42;341.80;;;;;;;22.80;90.75;98944.13;326855;30;1342;-81
2022/08/23 00:38:31;;;;;;;395.77;337.90;;;;;;;22.80;90.57;98937.94;325567;30;1325;-82
2022/08/23 00:38:41;;;;;;;394.15;335.92;;;;;;;22.79;90.25;98939.78;322717;30;2075;-82
2022/08/23 00:38:51;;;;;;;395.20;337.43;;;;;;;22.80;90.21;98941.44;320476;30;2005;-82
2022/08/23 00:39:02;;;;;;;398.55;346.02;;;;;;;22.81;90.43;98937.78;318393;30;2044;-82
2022/08/23 00:39:13;;;;;;;401.57;349.33;;;;;;;22.79;90.23;98939.78;314934;30;2544;-81
2022/08/23 00:39:23;;;;;;;401.38;349.08;;;;;;;22.78;89.85;98940.78;317893;31;1275;-81
2022/08/23 00:39:34;;;;;;;399.67;349.70;;;;;;;22.78;89.97;98943.44;315464;31;2752;-81
2022/08/23 00:39:44;;;;;;;400.80;351.10;;;;;;;22.78;90.17;98940.78;315371;30;2277;-81
2022/08/23 00:39:55;;;;;;;401.92;351.02;;;;;;;22.74;90.21;98944.72;318738;31;1305;-81
2022/08/23 00:40:07;;;;;;;402.17;350.60;;;;;;;22.77;90.20;98940.91;317245;31;2427;-81
2022/08/23 00:40:17;;;;;;;398.55;343.60;;;;;;;22.77;90.38;98939.06;317061;31;1757;-81
2022/08/23 00:40:28;;;;;;;396.98;343.45;;;;;;;22.79;89.96;98937.09;319812;30;1419;-81
2022/08/23 00:40:38;;;;;;;397.27;341.30;;;;;;;22.79;90.18;98941.59;318560;31;1311;-83
2022/08/23 00:40:50;;;;;;;400.90;343.77;;;;;;;22.77;90.07;98939.06;317349;30;2042;-82
2022/08/23 00:41:00;;;;;;;401.73;338.80;;;;;;;22.78;90.08;98946.09;316389;31;2435;-82
2022/08/23 00:41:11;;;;;;;399.15;336.73;;;;;;;22.78;90.08;98939.91;316408;31;1291;-82
2022/08/23 00:41:21;;;;;;;398.37;339.10;;;;;;;22.76;90.46;98945.41;313795;31;2542;-82
2022/08/23 00:41:32;;;;;;;397.47;343.73;;;;;;;22.76;90.18;98945.41;313783;31;3145;-82
2022/08/23 00:41:43;;;;;;;399.10;346.00;;;;;;;22.74;90.37;98944.72;313012;31;1313;-82
2022/08/23 00:47:40;;;;;;;391.40;345.27;;;;;;;22.75;88.94;98951.72;276681;35;758;-83
2022/08/23 00:47:51;;;;;;;392.75;347.83;;;;;;;22.76;88.79;98953.41;276116;35;7126;-82
2022/08/23 00:51:13;;;;;;;373.31;300.08;;;;;;;22.72;88.00;98968.03;2504617;27;20509;-81
2022/08/23 00:51:56;;;;;;;393.67;349.05;;;;;;;22.72;88.19;98965.38;350986;28;1288;-82
2022/08/23 00:52:07;;;;;;;392.67;348.38;;;;;;;22.73;88.15;98968.88;343353;28;1422;-82
2022/08/23 00:52:29;;;;;;;394.95;351.20;;;;;;;22.70;87.92;98962.03;343811;28;1290;-82
2022/08/23 00:52:54;;;;;;;393.70;350.05;;;;;;;22.71;88.17;98965.53;346349;28;1774;-82
2022/08/23 00:53:11;;;;;;;390.88;344.55;;;;;;;22.71;87.75;98966.38;346885;28;901;-82
2022/08/23 00:53:27;;;;;;;397.13;353.40;;;;;;;22.71;87.63;98974.38;347574;28;1609;-82
2022/08/23 00:53:41;;;;;;;403.48;359.35;;;;;;;22.70;88.20;98970.03;349182;28;1204;-82
2022/08/23 00:53:54;;;;;;;398.55;354.63;;;;;;;22.70;87.38;98964.69;347982;28;1405;-82
2022/08/23 00:54:04;;;;;;;399.73;355.52;;;;;;;22.71;87.72;98969.03;348896;28;1333;-82
2022/08/23 00:54:15;;;;;;;399.48;354.88;;;;;;;22.71;87.82;98977.03;348985;28;1355;-82
2022/08/23 00:54:26;;;;;;;402.20;357.10;;;;;;;22.71;87.43;98971.69;344879;28;1199;-82
2022/08/23 00:54:37;;;;;;;400.83;354.52;;;;;;;22.72;87.85;98976.03;347638;28;1143;-82
2022/08/23 00:54:48;;;;;;;397.30;351.25;;;;;;;22.70;87.63;98970.03;349378;28;1312;-82
2022/08/23 00:54:58;;;;;;;397.50;351.90;;;;;;;22.70;87.51;98969.19;347962;28;1219;-82
2022/08/23 00:55:09;;;;;;;400.00;355.50;;;;;;;22.70;87.65;98978.03;349388;28;1235;-82
2022/08/23 00:55:20;;;;;;;404.85;360.38;;;;;;;22.68;87.63;98972.00;346331;28;1244;-82
2022/08/23 00:55:31;;;;;;;398.03;353.97;;;;;;;22.69;87.52;98980.84;348044;28;1232;-82
2022/08/23 00:55:44;;;;;;;403.05;359.17;;;;;;;22.67;88.04;98975.66;345000;28;1317;-82
2022/08/23 00:55:56;;;;;;;403.58;359.92;;;;;;;22.65;87.76;98974.97;346257;28;1266;-82
2022/08/23 00:56:08;;;;;;;405.83;362.00;;;;;;;22.68;87.52;98971.16;347308;28;1409;-82
2022/08/23 00:56:19;;;;;;;399.30;355.38;;;;;;;22.67;87.80;98983.66;346190;28;849;-82
2022/08/23 00:56:31;;;;;;;401.58;357.35;;;;;;;22.68;87.70;98969.34;342182;28;1260;-82
2022/08/23 00:56:42;;;;;;;405.77;361.13;;;;;;;22.66;87.69;98981.16;343699;28;937;-82
2022/08/23 00:56:53;;;;;;;405.23;361.05;;;;;;;22.66;88.01;98979.31;343130;28;1213;-82
2022/08/23 00:57:05;;;;;;;404.20;360.08;;;;;;;22.66;87.72;98978.50;342378;28;2570;-82
2022/08/23 00:57:18;;;;;;;403.30;359.55;;;;;;;22.65;87.97;98980.31;340178;28;2652;-82
2022/08/23 00:57:28;;;;;;;407.80;363.65;;;;;;;22.66;87.49;98983.81;344731;28;1407;-82
2022/08/23 00:57:38;;;;;;;409.03;364.53;;;;;;;22.64;87.75;98978.66;343312;28;1765;-82
2022/08/23 00:57:50;;;;;;;412.08;367.42;;;;;;;22.66;88.14;98975.81;341225;28;3078;-82
2022/08/23 00:58:00;;;;;;;411.45;367.15;;;;;;;22.65;87.60;98976.81;342393;28;1364;-81
2022/08/23 00:58:12;;;;;;;411.20;366.70;;;;;;;22.65;87.46;98980.31;342555;28;1328;-81
2022/08/23 00:58:25;;;;;;;407.92;363.42;;;;;;;22.67;88.07;98973.00;339981;29;1268;-82
2022/08/23 00:58:35;;;;;;;404.05;359.77;;;;;;;22.69;87.75;98976.34;340371;28;1231;-82
2022/08/23 00:58:46;;;;;;;398.77;354.80;;;;;;;22.70;87.68;98978.03;342381;28;1377;-82
2022/08/23 00:58:56;;;;;;;399.80;355.73;;;;;;;22.70;87.77;98975.34;338778;29;1242;-82
2022/08/23 00:59:07;;;;;;;405.33;361.10;;;;;;;22.71;87.84;98979.69;340309;29;1423;-82
2022/08/23 00:59:17;;;;;;;408.63;364.13;;;;;;;22.70;87.98;98974.53;340388;28;1608;-82
2022/08/23 00:59:28;;;;;;;406.08;361.75;;;;;;;22.70;87.73;98975.34;338246;29;1970;-82
2022/08/23 00:59:38;;;;;;;406.33;362.10;;;;;;;22.69;87.94;98978.19;336959;29;1353;-82
2022/08/23 00:59:49;;;;;;;410.50;366.30;;;;;;;22.70;87.93;98975.34;336857;29;1196;-82
2022/08/23 00:59:59;;;;;;;411.65;367.45;;;;;;;22.69;87.70;98976.34;339717;29;1225;-82
2022/08/23 01:00:10;;;;;;;406.50;362.33;;;;;;;22.70;88.09;98980.69;340885;28;1340;-82
2022/08/23 01:00:21;;;;;;;401.00;357.02;;;;;;;22.68;87.63;98972.00;335080;29;1447;-82
2022/08/23 01:00:32;;;;;;;398.40;354.43;;;;;;;22.70;87.88;98980.69;332583;29;1385;-82
2022/08/23 01:00:43;;;;;;;402.65;358.50;;;;;;;22.69;87.50;98973.69;328492;30;1490;-82
2022/08/23 01:00:54;;;;;;;406.50;361.92;;;;;;;22.70;88.03;98975.34;329295;29;1854;-82
2022/08/23 01:01:05;;;;;;;411.77;367.13;;;;;;;22.69;87.70;98975.50;326378;29;1952;-82
2022/08/23 01:01:15;;;;;;;414.70;369.97;;;;;;;22.70;88.10;98977.19;324584;29;2213;-82
2022/08/23 01:01:26;;;;;;;415.65;370.80;;;;;;;22.71;87.58;98978.88;326069;30;1336;-82
2022/08/23 01:01:36;;;;;;;412.90;368.30;;;;;;;22.70;87.99;98980.69;331139;29;2142;-82
2022/08/23 01:01:47;;;;;;;407.35;363.05;;;;;;;22.69;88.00;98971.03;325767;30;1788;-82
2022/08/23 01:01:59;;;;;;;405.58;361.45;;;;;;;22.69;87.98;98973.69;323582;30;943;-82
2022/08/23 01:02:10;;;;;;;404.52;360.60;;;;;;;22.70;87.88;98970.03;327887;30;1413;-82
2022/08/23 01:02:20;;;;;;;404.20;360.13;;;;;;;22.69;88.17;98984.34;324522;30;1203;-82
2022/08/23 01:02:31;;;;;;;405.20;361.00;;;;;;;22.68;87.97;98974.69;324350;30;1476;-82
2022/08/23 01:02:41;;;;;;;401.17;357.08;;;;;;;22.70;88.18;98979.84;322252;30;1221;-82
2022/08/23 01:02:52;;;;;;;402.30;358.17;;;;;;;22.70;88.17;98982.53;325257;30;2013;-82
2022/08/23 01:03:03;;;;;;;400.75;356.67;;;;;;;22.70;88.29;98978.03;323168;30;2194;-82
2022/08/23 01:03:14;;;;;;;406.50;362.10;;;;;;;22.66;87.79;98976.66;318106;31;1482;-82
2022/08/23 01:03:26;;;;;;;408.75;364.27;;;;;;;22.65;88.34;98977.66;321871;30;2350;-82
2022/08/23 01:03:37;;;;;;;406.60;362.35;;;;;;;22.69;87.91;98975.50;320584;30;2695;-82
2022/08/23 01:03:53;;;;;;;408.65;364.33;;;;;;;22.70;88.04;98985.19;320454;30;2780;-82
2022/08/23 01:04:04;;;;;;;407.00;362.77;;;;;;;22.69;88.21;98979.03;318479;30;1922;-82
2022/08/23 01:04:16;;;;;;;402.15;358.05;;;;;;;22.70;87.31;98980.69;320518;30;916;-82
2022/08/23 01:04:28;;;;;;;404.10;359.90;;;;;;;22.71;87.72;98977.03;319972;30;1031;-82
2022/08/23 01:04:43;;;;;;;403.05;358.90;;;;;;;22.72;87.92;98977.88;318110;30;1834;-82
2022/08/23 01:04:55;;;;;;;405.80;361.55;;;;;;;22.73;87.85;98980.38;313838;31;2419;-82
2022/08/23 01:05:06;;;;;;;403.25;359.02;;;;;;;22.73;88.27;98977.72;315987;30;2986;-82